createdAt,value
2023-03-07T00:00:13.055Z,2.55
2023-03-07T00:02:39.453Z,3.03
2023-03-07T00:05:06.153Z,2.63
2023-03-07T00:07:32.618Z,2.40
2023-03-07T00:09:58.908Z,2.80
2023-03-07T00:12:25.432Z,2.70
2023-03-07T00:14:51.698Z,2.75
2023-03-07T00:17:17.992Z,2.60
2023-03-07T00:19:44.867Z,2.60
2023-03-07T00:22:13.072Z,2.22
2023-03-07T00:24:40.815Z,2.33
2023-03-07T00:27:07.117Z,2.40
2023-03-07T00:29:33.409Z,2.20
2023-03-07T00:31:59.718Z,2.22
2023-03-07T00:34:25.985Z,2.40
2023-03-07T00:36:52.584Z,2.40
2023-03-07T00:39:18.859Z,2.25
2023-03-07T00:41:45.097Z,2.35
2023-03-07T00:44:11.430Z,2.00
2023-03-07T00:46:37.765Z,2.30
2023-03-07T00:49:04.085Z,2.05
2023-03-07T00:51:30.385Z,2.03
2023-03-07T00:53:56.680Z,1.90
2023-03-07T00:56:24.109Z,1.83
2023-03-07T00:58:50.543Z,1.80
2023-03-07T01:01:18.102Z,1.85
2023-03-07T01:03:45.754Z,1.75
2023-03-07T01:06:13.786Z,1.98
2023-03-07T01:08:40.253Z,2.00
2023-03-07T01:11:07.301Z,1.95
2023-03-07T01:13:34.385Z,2.08
2023-03-07T01:16:27.148Z,1.75
2023-03-07T01:18:57.333Z,1.77
2023-03-07T01:21:25.164Z,1.85
2023-03-07T01:23:54.996Z,2.00
2023-03-07T01:26:23.048Z,1.55
2023-03-07T01:28:53.867Z,1.60
2023-03-07T01:31:20.309Z,1.63
2023-03-07T01:33:47.214Z,1.85
2023-03-07T01:36:19.629Z,2.10
2023-03-07T01:38:46.973Z,1.80
2023-03-07T01:41:13.638Z,1.80
2023-03-07T01:43:39.929Z,1.58
2023-03-07T01:46:21.574Z,1.40
2023-03-07T01:48:49.870Z,1.70
2023-03-07T01:51:16.546Z,1.80
2023-03-07T01:53:43.166Z,1.50
2023-03-07T01:56:10.525Z,1.60
2023-03-07T01:58:37.918Z,1.77
2023-03-07T02:01:04.888Z,1.88
2023-03-07T02:03:51.453Z,1.90
2023-03-07T02:06:18.469Z,1.40
2023-03-07T02:08:45.798Z,1.50
2023-03-07T02:11:12.509Z,1.33
2023-03-07T02:13:38.903Z,1.40
2023-03-07T02:16:05.857Z,2.00
2023-03-07T02:18:33.656Z,1.60
2023-03-07T02:21:18.723Z,1.83
2023-03-07T02:23:53.320Z,1.65
2023-03-07T02:26:28.845Z,1.55
2023-03-07T02:28:55.661Z,1.70
2023-03-07T02:31:22.237Z,1.60
2023-03-07T02:33:49.767Z,1.70
2023-03-07T02:36:18.769Z,1.60
2023-03-07T02:38:46.386Z,1.48
2023-03-07T02:41:14.594Z,1.40
2023-03-07T02:43:40.918Z,1.65
2023-03-07T02:46:07.266Z,1.63
2023-03-07T02:48:33.547Z,1.48
2023-03-07T02:50:59.885Z,1.42
2023-03-07T02:53:26.337Z,1.50
2023-03-07T02:55:52.685Z,1.70
2023-03-07T02:58:18.982Z,1.90
2023-03-07T03:00:45.366Z,1.85
2023-03-07T03:03:12.078Z,2.03
2023-03-07T03:05:38.413Z,1.90
2023-03-07T03:08:04.783Z,2.40
2023-03-07T03:10:31.076Z,2.20
2023-03-07T03:12:57.368Z,1.83
2023-03-07T03:15:23.655Z,2.22
2023-03-07T03:17:52.959Z,2.55
2023-03-07T03:20:19.363Z,2.15
2023-03-07T03:22:45.992Z,2.80
2023-03-07T03:25:13.638Z,2.40
2023-03-07T03:27:40.546Z,2.53
2023-03-07T03:30:08.663Z,2.65
2023-03-07T03:32:37.026Z,2.50
2023-03-07T03:35:04.082Z,3.13
2023-03-07T03:37:31.010Z,3.03
2023-03-07T03:39:57.322Z,3.58
2023-03-07T03:42:23.886Z,2.78
2023-03-07T03:44:50.227Z,2.97
2023-03-07T03:47:16.895Z,3.20
2023-03-07T03:49:43.208Z,3.15
2023-03-07T03:52:09.537Z,3.13
2023-03-07T03:54:35.911Z,2.85
2023-03-07T03:57:02.226Z,3.17
2023-03-07T03:59:29.642Z,3.15
2023-03-07T04:01:56.006Z,3.10
2023-03-07T04:04:22.413Z,2.60
2023-03-07T04:06:48.746Z,3.10
2023-03-07T04:09:15.142Z,2.83
2023-03-07T04:11:41.399Z,2.80
2023-03-07T04:14:07.716Z,2.90
2023-03-07T04:16:34.037Z,2.70
2023-03-07T04:19:00.309Z,2.90
2023-03-07T04:21:26.573Z,3.00
2023-03-07T04:23:55.698Z,3.92
2023-03-07T04:26:22.411Z,2.97
2023-03-07T04:28:49.522Z,2.92
2023-03-07T04:31:20.395Z,3.28
2023-03-07T04:33:47.399Z,2.88
2023-03-07T04:36:16.177Z,3.50
2023-03-07T04:38:42.691Z,3.05
2023-03-07T04:41:12.453Z,2.72
2023-03-07T04:43:38.765Z,3.00
2023-03-07T04:46:05.340Z,3.05
2023-03-07T04:48:31.751Z,2.70
2023-03-07T04:50:58.006Z,3.03
2023-03-07T04:53:24.282Z,3.08
2023-03-07T04:55:50.657Z,3.78
2023-03-07T04:58:16.912Z,3.20
2023-03-07T05:00:43.714Z,3.10
2023-03-07T05:03:10.956Z,3.03
2023-03-07T05:05:37.782Z,3.47
2023-03-07T05:08:04.748Z,3.20
2023-03-07T05:10:31.883Z,2.88
2023-03-07T05:12:58.254Z,3.45
2023-03-07T05:15:24.516Z,3.03
2023-03-07T05:17:50.862Z,2.83
2023-03-07T05:20:17.380Z,3.08
2023-03-07T05:22:44.497Z,2.95
2023-03-07T05:25:11.109Z,3.25
2023-03-07T05:27:37.716Z,3.08
2023-03-07T05:30:05.857Z,3.28
2023-03-07T05:32:32.650Z,2.80
2023-03-07T05:34:59.040Z,3.72
2023-03-07T05:37:25.297Z,3.15
2023-03-07T05:39:51.646Z,3.30
2023-03-07T05:42:17.913Z,3.42
2023-03-07T05:44:44.179Z,3.30
2023-03-07T05:47:10.542Z,3.55
2023-03-07T05:49:36.938Z,3.33
2023-03-07T05:52:03.385Z,4.07
2023-03-07T05:54:29.704Z,3.50
2023-03-07T05:56:56.028Z,3.78
2023-03-07T05:59:22.309Z,4.38
2023-03-07T06:01:48.601Z,3.85
2023-03-07T06:04:15.226Z,4.22
2023-03-07T06:06:41.551Z,3.70
2023-03-07T06:09:07.865Z,3.85
2023-03-07T06:11:34.127Z,3.83
2023-03-07T06:14:00.396Z,3.53
2023-03-07T06:16:26.729Z,3.72
2023-03-07T06:18:53.187Z,3.75
2023-03-07T06:21:19.712Z,3.55
2023-03-07T06:23:46.447Z,3.67
2023-03-07T06:26:12.937Z,4.00
2023-03-07T06:28:39.926Z,4.20
2023-03-07T06:31:09.968Z,4.18
2023-03-07T06:33:36.302Z,3.70
2023-03-07T06:36:06.695Z,3.78
2023-03-07T06:38:33.265Z,4.38
2023-03-07T06:40:59.543Z,4.15
2023-03-07T06:43:25.979Z,4.00
2023-03-07T06:45:52.412Z,3.85
2023-03-07T06:48:18.715Z,4.70
2023-03-07T06:50:48.190Z,3.70
2023-03-07T06:53:14.512Z,3.58
2023-03-07T06:55:40.825Z,3.50
2023-03-07T06:58:07.177Z,3.78
2023-03-07T07:00:33.473Z,4.20
2023-03-07T07:02:59.926Z,4.50
2023-03-07T07:05:26.257Z,4.40
2023-03-07T07:07:55.302Z,3.95
2023-03-07T07:10:21.554Z,4.07
2023-03-07T07:12:47.889Z,4.18
2023-03-07T07:15:14.140Z,4.30
2023-03-07T07:17:40.425Z,3.60
2023-03-07T07:20:07.352Z,4.00
2023-03-07T07:22:33.886Z,3.97
2023-03-07T07:25:00.212Z,4.10
2023-03-07T07:27:28.243Z,3.80
2023-03-07T07:29:54.507Z,4.20
2023-03-07T07:32:21.010Z,4.00
2023-03-07T07:34:47.368Z,4.03
2023-03-07T07:37:13.626Z,4.00
2023-03-07T07:39:43.989Z,3.92
2023-03-07T07:42:10.893Z,3.78
2023-03-07T07:44:37.186Z,3.90
2023-03-07T07:47:03.570Z,4.32
2023-03-07T07:49:29.941Z,4.47
2023-03-07T07:51:56.206Z,4.53
2023-03-07T07:54:22.475Z,3.58
2023-03-07T07:56:48.781Z,4.15
2023-03-07T07:59:15.122Z,3.88
2023-03-07T08:01:41.485Z,3.83
2023-03-07T08:04:07.718Z,4.10
2023-03-07T08:06:34.061Z,3.55
2023-03-07T08:09:00.338Z,4.15
2023-03-07T08:11:27.068Z,3.97
2023-03-07T08:13:53.438Z,3.40
2023-03-07T08:16:20.920Z,4.05
2023-03-07T08:18:51.476Z,3.60
2023-03-07T08:21:17.997Z,3.75
2023-03-07T08:23:44.310Z,4.05
2023-03-07T08:26:10.957Z,2.88
2023-03-07T08:28:37.609Z,3.78
2023-03-07T08:31:08.271Z,3.60
2023-03-07T08:33:34.579Z,3.25
2023-03-07T08:36:00.983Z,3.40
2023-03-07T08:38:28.008Z,3.03
2023-03-07T08:40:54.298Z,3.17
2023-03-07T08:43:20.726Z,2.78
2023-03-07T08:45:50.319Z,2.70
2023-03-07T08:48:16.641Z,2.80
2023-03-07T08:50:42.945Z,2.40
2023-03-07T08:53:09.283Z,2.40
2023-03-07T08:55:36.258Z,2.50
2023-03-07T08:58:02.620Z,2.30
2023-03-07T09:00:28.903Z,2.40
2023-03-07T09:02:58.278Z,2.20
2023-03-07T09:05:25.390Z,2.40
2023-03-07T09:07:51.715Z,2.45
2023-03-07T09:10:20.403Z,2.10
2023-03-07T09:12:47.096Z,2.10
2023-03-07T09:15:13.426Z,2.05
2023-03-07T09:17:39.780Z,2.08
2023-03-07T09:20:07.622Z,1.90
2023-03-07T09:22:33.898Z,2.42
2023-03-07T09:25:00.368Z,1.90
2023-03-07T09:27:27.070Z,2.25
2023-03-07T09:29:53.408Z,2.30
2023-03-07T09:32:19.660Z,2.45
2023-03-07T09:34:45.952Z,2.00
2023-03-07T09:37:12.601Z,2.30
2023-03-07T09:39:38.942Z,2.35
2023-03-07T09:42:34.832Z,1.85
2023-03-07T09:45:07.383Z,1.98
2023-03-07T09:47:55.030Z,1.70
2023-03-07T09:50:26.584Z,1.70
2023-03-07T09:52:53.999Z,1.80
2023-03-07T09:55:20.405Z,1.55
2023-03-07T09:58:07.985Z,1.50
2023-03-07T10:00:36.463Z,1.80
2023-03-07T10:03:05.555Z,1.55
2023-03-07T10:05:31.796Z,1.55
2023-03-07T10:07:58.711Z,1.42
2023-03-07T10:10:26.744Z,1.50
2023-03-07T10:12:59.336Z,1.27
2023-03-07T10:15:45.715Z,1.33
2023-03-07T10:18:21.060Z,1.60
2023-03-07T10:20:56.233Z,1.00
2023-03-07T10:23:32.515Z,1.58
2023-03-07T10:26:11.033Z,1.77
2023-03-07T10:28:42.605Z,1.40
2023-03-07T10:31:17.415Z,1.50
2023-03-07T10:33:46.370Z,1.38
2023-03-07T10:36:15.631Z,1.38
2023-03-07T10:38:41.908Z,1.13
2023-03-07T10:41:20.867Z,1.48
2023-03-07T10:43:47.894Z,1.05
2023-03-07T10:46:27.317Z,1.17
2023-03-07T10:49:08.698Z,1.17
2023-03-07T10:51:36.200Z,1.30
2023-03-07T10:54:04.417Z,1.60
2023-03-07T10:56:30.766Z,1.20
2023-03-07T10:58:59.996Z,1.40
2023-03-07T11:01:27.943Z,1.33
2023-03-07T11:04:00.567Z,1.30
2023-03-07T11:06:37.378Z,1.42
2023-03-07T11:09:10.999Z,1.42
2023-03-07T11:11:38.056Z,1.23
2023-03-07T11:14:08.155Z,1.13
2023-03-07T11:16:39.921Z,1.30
2023-03-07T11:19:24.082Z,1.38
2023-03-07T11:21:54.887Z,1.25
2023-03-07T11:24:27.033Z,1.25
2023-03-07T11:26:54.186Z,1.10
2023-03-07T11:29:20.539Z,1.00
2023-03-07T11:31:58.342Z,1.08
2023-03-07T11:34:32.127Z,1.40
2023-03-07T11:37:06.320Z,1.25
2023-03-07T11:39:36.922Z,1.30
2023-03-07T11:42:06.289Z,1.00
2023-03-07T11:44:35.742Z,1.15
2023-03-07T11:47:11.133Z,1.52
2023-03-07T11:49:37.435Z,0.88
2023-03-07T11:52:24.113Z,1.35
2023-03-07T11:54:53.351Z,1.27
2023-03-07T11:57:43.005Z,1.20
2023-03-07T12:00:16.068Z,1.00
2023-03-07T12:02:57.733Z,1.52
2023-03-07T12:05:33.236Z,0.93
2023-03-07T12:07:59.473Z,1.30
2023-03-07T12:10:32.431Z,1.10
2023-03-07T12:13:01.738Z,1.25
2023-03-07T12:15:34.216Z,1.00
2023-03-07T12:18:00.604Z,1.05
2023-03-07T12:20:45.909Z,0.90
2023-03-07T12:23:21.245Z,1.25
2023-03-07T12:25:51.360Z,1.17
2023-03-07T12:28:38.865Z,1.00
2023-03-07T12:31:15.019Z,1.00
2023-03-07T12:33:53.881Z,0.90
2023-03-07T12:36:23.662Z,0.90
2023-03-07T12:39:13.324Z,1.00
2023-03-07T12:41:58.846Z,0.70
2023-03-07T12:44:40.488Z,1.13
2023-03-07T12:47:12.158Z,0.70
2023-03-07T12:49:53.173Z,0.90
2023-03-07T12:52:28.446Z,0.82
2023-03-07T12:55:13.345Z,1.00
2023-03-07T12:57:41.322Z,1.23
2023-03-07T13:00:08.814Z,0.98
2023-03-07T13:02:41.637Z,0.82
2023-03-07T13:05:16.155Z,0.80
2023-03-07T13:07:42.772Z,1.35
2023-03-07T13:10:10.376Z,1.02
2023-03-07T13:12:37.561Z,0.65
2023-03-07T13:15:22.336Z,1.00
2023-03-07T13:17:51.573Z,0.85
2023-03-07T13:20:27.136Z,0.85
2023-03-07T13:22:53.941Z,0.90
2023-03-07T13:25:20.536Z,0.95
2023-03-07T13:27:46.803Z,0.80
2023-03-07T13:30:16.971Z,0.68
2023-03-07T13:32:52.252Z,0.77
2023-03-07T13:35:30.671Z,0.80
2023-03-07T13:37:57.082Z,0.90
2023-03-07T13:40:49.385Z,1.02
2023-03-07T13:43:18.789Z,0.90
2023-03-07T13:45:49.699Z,0.80
2023-03-07T13:48:24.817Z,0.90
2023-03-07T13:50:54.302Z,1.00
2023-03-07T13:53:39.492Z,0.85
2023-03-07T13:56:25.099Z,0.60
2023-03-07T13:58:57.429Z,0.70
2023-03-07T14:01:26.889Z,0.80
2023-03-07T14:03:55.913Z,0.90
2023-03-07T14:06:28.001Z,0.70
2023-03-07T14:08:56.548Z,0.90
2023-03-07T14:11:25.762Z,1.10
2023-03-07T14:13:54.823Z,0.88
2023-03-07T14:16:27.380Z,0.90
2023-03-07T14:19:05.924Z,1.05
2023-03-07T14:22:03.743Z,1.05
2023-03-07T14:24:40.711Z,1.10
2023-03-07T14:27:12.287Z,1.00
2023-03-07T14:29:46.795Z,0.98
2023-03-07T14:32:32.722Z,1.67
2023-03-07T14:34:59.552Z,1.10
2023-03-07T14:37:27.286Z,0.98
2023-03-07T14:40:09.178Z,1.10
2023-03-07T14:42:41.570Z,1.30
2023-03-07T14:45:23.272Z,1.10
2023-03-07T14:48:15.966Z,1.05
2023-03-07T14:50:44.232Z,1.48
2023-03-07T14:53:16.165Z,1.20
2023-03-07T14:55:44.787Z,1.10
2023-03-07T14:58:21.988Z,1.13
2023-03-07T15:01:19.520Z,1.30
2023-03-07T15:03:50.191Z,1.15
2023-03-07T15:06:18.121Z,1.60
2023-03-07T15:08:44.589Z,1.40
2023-03-07T15:11:13.948Z,1.40
2023-03-07T15:13:46.961Z,1.23
2023-03-07T15:16:17.549Z,1.50
2023-03-07T15:18:45.949Z,1.30
2023-03-07T15:21:16.699Z,1.55
2023-03-07T15:23:43.115Z,1.38
2023-03-07T15:26:14.948Z,1.50
2023-03-07T15:28:42.564Z,1.35
2023-03-07T15:31:09.135Z,1.30
2023-03-07T15:33:38.112Z,1.17
2023-03-07T15:36:15.204Z,1.70
2023-03-07T15:38:45.849Z,1.65
2023-03-07T15:41:47.777Z,1.58
2023-03-07T15:44:14.155Z,1.50
2023-03-07T15:46:43.058Z,1.60
2023-03-07T15:49:20.401Z,1.50
2023-03-07T15:51:46.864Z,1.50
2023-03-07T15:54:16.493Z,1.98
2023-03-07T15:56:42.871Z,1.60
2023-03-07T15:59:17.747Z,1.80
2023-03-07T16:01:44.385Z,1.80
2023-03-07T16:04:31.630Z,2.20
2023-03-07T16:06:59.085Z,2.20
2023-03-07T16:09:25.441Z,2.30
2023-03-07T16:11:51.892Z,2.65
2023-03-07T16:14:26.323Z,2.42
2023-03-07T16:16:57.550Z,2.28
2023-03-07T16:19:23.916Z,2.72
2023-03-07T16:21:50.294Z,3.10
2023-03-07T16:24:16.660Z,3.42
2023-03-07T16:26:43.438Z,3.03
2023-03-07T16:29:16.817Z,2.63
2023-03-07T16:31:43.289Z,2.30
2023-03-07T16:34:14.510Z,2.35
2023-03-07T16:36:42.769Z,2.25
2023-03-07T16:39:09.919Z,2.50
2023-03-07T16:41:42.770Z,2.75
2023-03-07T16:44:14.264Z,2.28
2023-03-07T16:46:40.856Z,2.15
2023-03-07T16:49:12.323Z,1.90
2023-03-07T16:51:38.643Z,2.40
2023-03-07T16:54:04.995Z,2.05
2023-03-07T16:56:42.024Z,2.13
2023-03-07T16:59:11.803Z,1.55
2023-03-07T17:01:39.010Z,1.92
2023-03-07T17:04:05.343Z,2.03
2023-03-07T17:06:39.083Z,1.70
2023-03-07T17:09:06.730Z,1.88
2023-03-07T17:11:33.387Z,1.90
2023-03-07T17:14:02.632Z,1.50
2023-03-07T17:16:29.018Z,1.60
2023-03-07T17:18:55.375Z,1.58
2023-03-07T17:21:22.211Z,1.70
2023-03-07T17:23:49.274Z,1.95
2023-03-07T17:26:32.824Z,1.30
2023-03-07T17:29:01.493Z,1.60
2023-03-07T17:31:27.969Z,1.33
2023-03-07T17:33:54.362Z,1.35
2023-03-07T17:36:20.690Z,1.92
2023-03-07T17:38:47.105Z,1.60
2023-03-07T17:41:13.433Z,1.58
2023-03-07T17:43:39.697Z,1.77
2023-03-07T17:46:09.583Z,1.75
2023-03-07T17:48:35.892Z,2.00
2023-03-07T17:51:07.105Z,1.77
2023-03-07T17:53:34.728Z,2.05
2023-03-07T17:56:08.204Z,1.83
2023-03-07T17:58:34.593Z,1.20
2023-03-07T18:01:00.994Z,1.65
2023-03-07T18:03:27.376Z,1.80
2023-03-07T18:05:54.213Z,1.70
2023-03-07T18:08:20.754Z,1.77
2023-03-07T18:10:47.139Z,1.88
2023-03-07T18:13:14.855Z,1.92
2023-03-07T18:15:44.676Z,1.55
2023-03-07T18:18:11.434Z,1.88
2023-03-07T18:20:37.706Z,1.98
2023-03-07T18:23:04.088Z,1.63
2023-03-07T18:25:30.410Z,1.90
2023-03-07T18:27:56.759Z,1.83
2023-03-07T18:30:23.116Z,1.75
2023-03-07T18:32:49.799Z,2.05
2023-03-07T18:35:16.093Z,1.65
2023-03-07T18:37:45.095Z,1.70
2023-03-07T18:40:11.988Z,1.77
2023-03-07T18:42:39.247Z,2.00
2023-03-07T18:48:39.040Z,2.03
2023-03-07T18:51:06.962Z,1.67
2023-03-07T18:53:33.566Z,1.80
2023-03-07T18:56:06.695Z,1.60
2023-03-07T18:58:33.616Z,1.80
2023-03-07T19:01:29.458Z,1.80
2023-03-07T19:04:00.714Z,2.15
2023-03-07T19:06:33.149Z,1.90
2023-03-07T19:08:59.959Z,2.10
2023-03-07T19:11:26.425Z,1.80
2023-03-07T19:13:52.764Z,1.65
2023-03-07T19:16:20.463Z,1.75
2023-03-07T19:18:47.090Z,1.75
2023-03-07T19:21:14.765Z,1.73
2023-03-07T19:23:42.615Z,1.95
2023-03-07T19:26:10.235Z,1.92
2023-03-07T19:28:36.542Z,1.90
2023-03-07T19:31:06.520Z,1.50
2023-03-07T19:33:32.826Z,1.67
2023-03-07T19:36:09.626Z,1.73
2023-03-07T19:38:36.393Z,1.85
2023-03-07T19:41:03.481Z,1.67
2023-03-07T19:43:30.177Z,2.13
2023-03-07T19:45:56.724Z,2.15
2023-03-07T19:48:23.551Z,2.08
2023-03-07T19:50:52.505Z,2.42
2023-03-07T19:53:19.282Z,1.80
2023-03-07T19:55:45.777Z,1.88
2023-03-07T19:58:12.353Z,2.05
2023-03-07T20:00:39.445Z,2.08
2023-03-07T20:03:05.831Z,2.25
2023-03-07T20:05:32.200Z,2.03
2023-03-07T20:07:58.519Z,1.98
2023-03-07T20:10:24.845Z,2.05
2023-03-07T20:12:52.915Z,2.15
2023-03-07T20:15:19.183Z,2.10
2023-03-07T20:17:45.468Z,1.92
2023-03-07T20:20:11.998Z,1.90
2023-03-07T20:22:38.754Z,2.00
2023-03-07T20:25:05.387Z,1.90
2023-03-07T20:27:31.764Z,1.70
2023-03-07T20:29:58.118Z,2.08
2023-03-07T20:32:24.602Z,2.08
2023-03-07T20:34:52.503Z,2.20
2023-03-07T20:37:19.611Z,1.85
2023-03-07T20:39:45.936Z,2.00
2023-03-07T20:42:12.280Z,2.28
2023-03-07T20:44:38.676Z,2.00
2023-03-07T20:47:05.024Z,2.00
2023-03-07T20:49:31.269Z,2.03
2023-03-07T20:51:57.665Z,1.80
2023-03-07T20:54:24.062Z,2.08
2023-03-07T20:56:50.782Z,2.50
2023-03-07T20:59:20.431Z,1.73
2023-03-07T21:01:46.844Z,1.60
2023-03-07T21:04:15.790Z,2.38
2023-03-07T21:06:43.247Z,1.60
2023-03-07T21:09:14.792Z,1.70
2023-03-07T21:11:45.588Z,1.83
2023-03-07T21:14:18.790Z,1.88
2023-03-07T21:16:46.828Z,1.50
2023-03-07T21:19:19.080Z,1.73
2023-03-07T21:21:47.981Z,1.73
2023-03-07T21:24:18.114Z,1.95
2023-03-07T21:26:45.799Z,1.40
2023-03-07T21:29:13.897Z,1.60
2023-03-07T21:31:40.428Z,1.65
2023-03-07T21:34:07.804Z,1.65
2023-03-07T21:36:35.044Z,1.60
2023-03-07T21:39:07.429Z,1.27
2023-03-07T21:41:34.261Z,1.50
2023-03-07T21:44:00.980Z,1.58
2023-03-07T21:46:27.716Z,2.10
2023-03-07T21:48:54.110Z,1.45
2023-03-07T21:51:21.139Z,1.77
2023-03-07T21:53:50.275Z,1.80
2023-03-07T21:56:17.178Z,1.95
2023-03-07T21:58:46.503Z,1.90
2023-03-07T22:01:23.635Z,1.70
2023-03-07T22:03:54.421Z,1.70
2023-03-07T22:06:21.363Z,1.52
2023-03-07T22:08:48.175Z,1.73
2023-03-07T22:11:14.452Z,1.42
2023-03-07T22:13:43.250Z,1.70
2023-03-07T22:16:11.847Z,2.03
2023-03-07T22:18:38.335Z,1.77
2023-03-07T22:21:08.498Z,1.67
2023-03-07T22:23:35.518Z,1.60
2023-03-07T22:26:08.836Z,1.63
2023-03-07T22:28:35.281Z,1.67
2023-03-07T22:31:02.760Z,1.58
2023-03-07T22:33:29.263Z,1.85
2023-03-07T22:35:56.917Z,1.70
2023-03-07T22:38:23.247Z,1.73
2023-03-07T22:40:49.565Z,1.70
2023-03-07T22:43:15.877Z,1.58
2023-03-07T22:45:46.669Z,1.60
2023-03-07T22:48:12.966Z,1.45
2023-03-07T22:50:39.309Z,1.83
2023-03-07T22:53:05.606Z,1.85
2023-03-07T22:55:31.937Z,1.85
2023-03-07T22:57:58.226Z,1.77
2023-03-07T23:00:25.566Z,1.88
2023-03-07T23:02:51.902Z,1.92
2023-03-07T23:05:18.305Z,1.77
2023-03-07T23:07:47.177Z,2.05
2023-03-07T23:10:14.668Z,1.80
2023-03-07T23:12:41.020Z,1.63
2023-03-07T23:15:07.728Z,1.95
2023-03-07T23:17:34.990Z,1.98
2023-03-07T23:20:01.267Z,1.88
2023-03-07T23:22:27.596Z,1.83
2023-03-07T23:24:53.876Z,1.83
2023-03-07T23:27:20.154Z,1.92
2023-03-07T23:29:46.438Z,2.05
2023-03-07T23:32:12.722Z,2.03
2023-03-07T23:34:39.064Z,1.80
2023-03-07T23:37:05.579Z,1.80
2023-03-07T23:39:31.897Z,1.70
2023-03-07T23:41:58.229Z,2.08
2023-03-07T23:44:24.580Z,1.98
2023-03-07T23:46:50.886Z,1.90
2023-03-07T23:49:17.218Z,2.40
2023-03-07T23:51:44.573Z,1.73
2023-03-07T23:54:10.871Z,1.80
2023-03-07T23:56:38.298Z,1.80
2023-03-07T23:59:04.589Z,2.22
